Time;durP1;ratioP1;P1;durP2;ratioP2;P2;SDS_P1;SDS_P2;PMS_P1;PMS_P2;Temp;Humidity;BMP_temperature;BMP_pressure;BME280_temperature;BME280_humidity;BME280_pressure;Samples;Min_cycle;Max_cycle;Signal;HPM_P1;HPM_P2
2021/08/26 00:07:32;;;;;;;6.97;6.13;;;;;;;;;;5107947;28;24537;-61
2021/08/26 00:09:57;;;;;;;7.30;6.70;;;;;;;;;;5106082;28;25000;-61
2021/08/26 00:12:23;;;;;;;6.40;5.80;;;;;;;;;;5107387;28;24414;-61
2021/08/26 00:14:48;;;;;;;6.83;6.13;;;;;;;;;;5104489;28;24776;-61
2021/08/26 00:17:14;;;;;;;7.20;6.60;;;;;;;;;;5106892;28;24591;-61
2021/08/26 00:19:39;;;;;;;8.00;7.30;;;;;;;;;;5106891;28;24470;-61
2021/08/26 00:22:05;;;;;;;7.70;7.10;;;;;;;;;;5107524;28;24410;-60
2021/08/26 00:24:30;;;;;;;7.80;7.10;;;;;;;;;;5105910;28;24493;-61
2021/08/26 00:26:55;;;;;;;7.28;6.68;;;;;;;;;;5107457;28;24414;-60
2021/08/26 00:29:20;;;;;;;7.73;7.10;;;;;;;;;;5111026;28;24886;-60
2021/08/26 00:31:45;;;;;;;7.70;7.10;;;;;;;;;;5110404;28;24426;-60
2021/08/26 00:34:11;;;;;;;8.40;7.70;;;;;;;;;;5110449;28;24425;-60
2021/08/26 00:36:36;;;;;;;7.72;7.10;;;;;;;;;;5109637;28;24550;-60
2021/08/26 00:39:01;;;;;;;6.93;6.32;;;;;;;;;;5109439;28;24516;-61
2021/08/26 00:41:26;;;;;;;8.97;8.17;;;;;;;;;;5089903;28;24429;-60
2021/08/26 00:43:51;;;;;;;6.80;6.20;;;;;;;;;;5109224;28;24421;-61
2021/08/26 00:46:16;;;;;;;7.27;6.67;;;;;;;;;;5109465;28;25099;-61
2021/08/26 00:48:45;;;;;;;7.70;7.10;;;;;;;;;;5109159;28;24904;-60
2021/08/26 00:51:10;;;;;;;8.30;7.70;;;;;;;;;;5110448;28;24430;-60
2021/08/26 00:53:36;;;;;;;9.00;8.20;;;;;;;;;;5110153;28;24412;-62
2021/08/26 00:56:02;;;;;;;8.10;7.40;;;;;;;;;;5110384;28;24449;-61
2021/08/26 00:58:29;;;;;;;8.60;7.80;;;;;;;;;;5111007;28;24449;-62
2021/08/26 01:00:57;;;;;;;9.05;8.30;;;;;;;;;;5110380;28;24779;-61
2021/08/26 01:03:27;;;;;;;7.50;7.00;;;;;;;;;;5102377;28;24425;-61
2021/08/26 01:05:54;;;;;;;8.50;7.80;;;;;;;;;;5109765;28;24468;-61
2021/08/26 01:08:21;;;;;;;8.13;7.53;;;;;;;;;;5110113;28;24472;-61
2021/08/26 01:10:50;;;;;;;7.43;6.82;;;;;;;;;;5108960;28;24483;-61
2021/08/26 01:13:15;;;;;;;8.15;7.45;;;;;;;;;;5109219;28;24409;-61
2021/08/26 01:16:00;;;;;;;8.10;7.40;;;;;;;;;;5110174;28;24471;-61
2021/08/26 01:18:27;;;;;;;6.97;6.47;;;;;;;;;;5109798;28;25008;-62
2021/08/26 01:20:52;;;;;;;8.93;8.13;;;;;;;;;;5106467;28;24512;-62
2021/08/26 01:23:17;;;;;;;8.23;7.63;;;;;;;;;;5110026;28;25055;-62
2021/08/26 01:25:44;;;;;;;8.10;7.50;;;;;;;;;;5109555;28;24424;-62
2021/08/26 01:28:10;;;;;;;9.30;8.60;;;;;;;;;;5109559;28;24493;-62
2021/08/26 01:30:38;;;;;;;9.10;8.40;;;;;;;;;;5106946;28;24541;-62
2021/08/26 01:33:03;;;;;;;8.55;7.85;;;;;;;;;;5109689;28;24981;-62
2021/08/26 01:35:29;;;;;;;8.00;7.40;;;;;;;;;;5109405;28;24434;-62
2021/08/26 01:37:54;;;;;;;11.40;10.50;;;;;;;;;;5109194;28;24401;-62
2021/08/26 01:40:32;;;;;;;9.90;9.10;;;;;;;;;;5108326;28;24683;-62
2021/08/26 01:42:58;;;;;;;8.93;8.23;;;;;;;;;;5105108;28;24417;-62
2021/08/26 01:45:23;;;;;;;9.88;9.10;;;;;;;;;;5109079;27;24429;-62
2021/08/26 01:47:48;;;;;;;10.35;9.45;;;;;;;;;;5109718;28;25090;-61
2021/08/26 01:50:13;;;;;;;10.63;9.82;;;;;;;;;;5107014;28;24422;-61
2021/08/26 01:52:38;;;;;;;9.90;9.20;;;;;;;;;;5109378;28;24421;-62
2021/08/26 01:55:04;;;;;;;8.80;8.20;;;;;;;;;;5109875;28;24807;-61
2021/08/26 01:57:31;;;;;;;8.95;8.30;;;;;;;;;;5108519;28;24425;-62
2021/08/26 02:00:01;;;;;;;9.60;8.90;;;;;;;;;;5109626;28;24413;-61
2021/08/26 02:02:26;;;;;;;8.63;8.02;;;;;;;;;;5107528;28;24998;-62
2021/08/26 02:04:51;;;;;;;8.93;8.32;;;;;;;;;;5108922;28;24421;-62
2021/08/26 02:07:16;;;;;;;7.20;6.70;;;;;;;;;;5108470;28;24515;-62
2021/08/26 02:09:41;;;;;;;6.80;6.30;;;;;;;;;;5109493;28;24507;-62
2021/08/26 02:12:07;;;;;;;7.32;6.72;;;;;;;;;;5107219;28;25034;-62
2021/08/26 02:14:32;;;;;;;7.07;6.57;;;;;;;;;;5108047;28;24978;-63
2021/08/26 02:16:57;;;;;;;6.55;6.05;;;;;;;;;;5108620;28;24412;-62
2021/08/26 02:19:22;;;;;;;6.68;6.18;;;;;;;;;;5108424;28;24426;-62
2021/08/26 02:21:48;;;;;;;5.50;5.20;;;;;;;;;;5107629;28;24974;-61
2021/08/26 02:24:13;;;;;;;6.15;5.75;;;;;;;;;;5108688;28;24425;-61
2021/08/26 02:26:38;;;;;;;4.70;4.40;;;;;;;;;;5108839;28;24437;-61
2021/08/26 02:29:03;;;;;;;5.22;4.93;;;;;;;;;;5108495;28;24474;-61
2021/08/26 02:31:29;;;;;;;5.50;5.20;;;;;;;;;;5108527;28;24417;-61
2021/08/26 02:33:54;;;;;;;4.70;4.40;;;;;;;;;;5108232;27;24420;-61
2021/08/26 02:36:19;;;;;;;5.20;4.90;;;;;;;;;;5108454;28;24509;-62
2021/08/26 02:38:45;;;;;;;4.83;4.53;;;;;;;;;;5111600;27;24517;-61
2021/08/26 02:41:10;;;;;;;5.00;4.70;;;;;;;;;;5112653;27;24965;-62
2021/08/26 02:43:35;;;;;;;4.20;4.00;;;;;;;;;;5107018;28;24421;-62
2021/08/26 02:46:00;;;;;;;3.95;3.75;;;;;;;;;;5105557;28;24970;-62
2021/08/26 02:48:25;;;;;;;4.40;4.10;;;;;;;;;;5108269;28;24970;-62
2021/08/26 02:50:51;;;;;;;4.73;4.43;;;;;;;;;;5106685;28;24494;-61
2021/08/26 02:53:16;;;;;;;4.53;4.17;;;;;;;;;;5107062;28;24401;-61
2021/08/26 02:55:41;;;;;;;4.37;4.17;;;;;;;;;;5108702;28;24454;-60
2021/08/26 02:58:06;;;;;;;4.50;4.20;;;;;;;;;;5113382;27;24962;-61
2021/08/26 03:00:31;;;;;;;5.25;4.95;;;;;;;;;;5106827;28;24436;-61
2021/08/26 03:02:56;;;;;;;4.80;4.30;;;;;;;;;;5107821;28;24432;-61
2021/08/26 03:05:22;;;;;;;4.43;4.03;;;;;;;;;;5106199;28;24455;-62
2021/08/26 03:07:47;;;;;;;5.43;3.90;;;;;;;;;;5107743;28;24414;-61
2021/08/26 03:10:12;;;;;;;3.92;3.63;;;;;;;;;;5105912;28;24417;-61
2021/08/26 03:12:37;;;;;;;3.40;3.10;;;;;;;;;;5107940;28;24409;-61
2021/08/26 03:15:02;;;;;;;3.90;3.40;;;;;;;;;;5106092;28;24438;-61
2021/08/26 03:17:27;;;;;;;3.80;3.50;;;;;;;;;;5107076;28;24405;-61
2021/08/26 03:19:53;;;;;;;3.50;3.20;;;;;;;;;;5107251;27;24818;-61
2021/08/26 03:22:18;;;;;;;3.88;3.30;;;;;;;;;;5107600;28;25024;-62
2021/08/26 03:24:43;;;;;;;3.60;2.85;;;;;;;;;;5107914;28;24428;-62
2021/08/26 03:27:09;;;;;;;3.40;3.10;;;;;;;;;;5108093;28;24446;-61
2021/08/26 03:29:34;;;;;;;3.20;2.80;;;;;;;;;;5106522;28;24482;-62
2021/08/26 03:32:00;;;;;;;3.08;2.78;;;;;;;;;;5105700;28;24433;-63
2021/08/26 03:34:25;;;;;;;3.88;2.70;;;;;;;;;;5108280;28;24416;-62
2021/08/26 03:36:50;;;;;;;3.17;2.88;;;;;;;;;;5107254;28;24771;-62
2021/08/26 03:39:15;;;;;;;3.20;2.70;;;;;;;;;;5105997;28;24417;-62
2021/08/26 03:41:40;;;;;;;3.10;2.80;;;;;;;;;;5107017;28;24465;-62
2021/08/26 03:44:05;;;;;;;3.50;3.10;;;;;;;;;;5107260;28;24632;-62
2021/08/26 03:46:31;;;;;;;4.23;3.30;;;;;;;;;;5106254;28;24424;-63
2021/08/26 03:48:56;;;;;;;3.30;3.00;;;;;;;;;;5107318;28;24767;-61
2021/08/26 03:51:21;;;;;;;3.10;2.80;;;;;;;;;;5108503;27;24441;-62
2021/08/26 03:53:46;;;;;;;3.30;2.88;;;;;;;;;;5107758;28;24420;-62
2021/08/26 03:56:12;;;;;;;3.30;3.00;;;;;;;;;;5107143;28;25004;-62
2021/08/26 03:58:37;;;;;;;4.90;3.40;;;;;;;;;;5106639;28;24497;-62
2021/08/26 04:01:03;;;;;;;3.90;3.20;;;;;;;;;;5106928;28;24445;-62
2021/08/26 04:03:28;;;;;;;3.53;3.10;;;;;;;;;;5102105;28;25050;-62
2021/08/26 04:05:53;;;;;;;2.90;2.60;;;;;;;;;;5107668;28;24425;-62
2021/08/26 04:08:18;;;;;;;3.88;3.00;;;;;;;;;;5106968;28;24780;-62
2021/08/26 04:10:44;;;;;;;2.85;2.65;;;;;;;;;;5106260;28;24429;-61
2021/08/26 04:13:09;;;;;;;3.38;3.00;;;;;;;;;;5107228;28;24513;-61
2021/08/26 04:15:34;;;;;;;3.50;3.13;;;;;;;;;;5106375;28;24979;-62
2021/08/26 04:17:59;;;;;;;3.30;3.00;;;;;;;;;;5107331;28;24408;-63
2021/08/26 04:20:24;;;;;;;3.67;3.00;;;;;;;;;;5106947;28;24768;-62
2021/08/26 04:22:49;;;;;;;3.58;2.80;;;;;;;;;;5105896;28;24562;-62
2021/08/26 04:25:14;;;;;;;4.10;2.80;;;;;;;;;;5107334;28;24406;-61
2021/08/26 04:27:40;;;;;;;3.60;2.90;;;;;;;;;;5107377;28;24429;-61
2021/08/26 04:30:06;;;;;;;3.60;2.90;;;;;;;;;;5105076;28;24503;-62
2021/08/26 04:32:31;;;;;;;3.65;2.72;;;;;;;;;;5105871;28;24406;-61
2021/08/26 04:34:56;;;;;;;3.28;2.97;;;;;;;;;;5107084;28;24410;-62
2021/08/26 04:37:21;;;;;;;3.60;3.30;;;;;;;;;;5104665;28;25104;-62
2021/08/26 04:39:47;;;;;;;4.60;3.10;;;;;;;;;;5096951;28;24425;-62
2021/08/26 04:42:12;;;;;;;3.55;3.25;;;;;;;;;;5106127;28;24471;-61
2021/08/26 04:44:37;;;;;;;3.85;3.53;;;;;;;;;;5104497;28;24484;-61
2021/08/26 04:47:02;;;;;;;3.17;2.90;;;;;;;;;;5107507;28;24413;-61
2021/08/26 04:49:27;;;;;;;3.00;2.80;;;;;;;;;;5106598;28;24460;-61
2021/08/26 04:51:52;;;;;;;3.73;3.13;;;;;;;;;;5105903;28;24434;-61
2021/08/26 04:54:18;;;;;;;3.13;2.83;;;;;;;;;;5110484;28;24596;-61
2021/08/26 04:56:43;;;;;;;3.90;3.20;;;;;;;;;;5105594;28;24401;-62
2021/08/26 04:59:08;;;;;;;4.33;3.80;;;;;;;;;;5101523;28;24481;-60
2021/08/26 05:01:34;;;;;;;4.17;3.57;;;;;;;;;;5105134;28;24463;-61
2021/08/26 05:03:59;;;;;;;4.50;3.97;;;;;;;;;;5104052;28;24418;-61
2021/08/26 05:06:24;;;;;;;4.33;3.90;;;;;;;;;;5084445;28;24429;-62
2021/08/26 05:08:49;;;;;;;3.60;3.30;;;;;;;;;;5108820;28;24512;-61
2021/08/26 05:11:21;;;;;;;3.92;3.50;;;;;;;;;;5104413;28;24487;-61
2021/08/26 05:13:46;;;;;;;4.00;3.60;;;;;;;;;;5090301;28;24420;-63
2021/08/26 05:16:12;;;;;;;4.57;3.47;;;;;;;;;;5107966;28;24386;-62
2021/08/26 05:18:37;;;;;;;3.80;3.33;;;;;;;;;;5106306;28;24504;-62
2021/08/26 05:21:02;;;;;;;4.60;3.70;;;;;;;;;;5096353;28;24411;-62
2021/08/26 05:23:28;;;;;;;4.05;3.65;;;;;;;;;;5103925;28;24506;-62
2021/08/26 05:25:54;;;;;;;4.65;4.15;;;;;;;;;;5106713;28;24964;-62
2021/08/26 05:28:19;;;;;;;5.10;4.00;;;;;;;;;;5102818;28;24436;-61
2021/08/26 05:30:44;;;;;;;4.37;3.97;;;;;;;;;;5111213;27;24787;-61
2021/08/26 05:33:10;;;;;;;4.90;4.22;;;;;;;;;;5122111;27;24524;-61
2021/08/26 05:35:35;;;;;;;4.03;3.50;;;;;;;;;;5089958;27;24540;-61
2021/08/26 05:38:00;;;;;;;5.00;3.90;;;;;;;;;;5103501;28;24468;-61
2021/08/26 05:40:25;;;;;;;5.45;3.85;;;;;;;;;;5106017;28;24410;-61
2021/08/26 05:42:50;;;;;;;4.45;3.92;;;;;;;;;;5105741;27;24424;-61
2021/08/26 05:45:15;;;;;;;4.50;3.70;;;;;;;;;;5108751;27;24991;-63
2021/08/26 05:47:41;;;;;;;5.60;4.18;;;;;;;;;;5112668;27;24776;-61
2021/08/26 05:50:06;;;;;;;5.03;4.53;;;;;;;;;;5110410;27;24982;-61
2021/08/26 05:52:31;;;;;;;4.40;4.00;;;;;;;;;;5108494;28;24593;-62
2021/08/26 05:54:56;;;;;;;4.10;3.70;;;;;;;;;;5109370;28;24446;-62
2021/08/26 05:57:22;;;;;;;4.40;3.23;;;;;;;;;;5118648;27;24413;-61
2021/08/26 05:59:47;;;;;;;6.53;4.60;;;;;;;;;;5124065;27;24434;-61
2021/08/26 06:02:12;;;;;;;4.90;4.22;;;;;;;;;;5108633;28;25070;-63
2021/08/26 06:04:37;;;;;;;4.85;4.25;;;;;;;;;;5119568;27;25038;-61
2021/08/26 06:07:02;;;;;;;4.30;3.90;;;;;;;;;;5130029;27;24396;-62
2021/08/26 06:09:27;;;;;;;5.07;4.40;;;;;;;;;;5128207;27;24496;-62
2021/08/26 06:11:52;;;;;;;4.43;4.03;;;;;;;;;;5094262;27;24452;-61
2021/08/26 06:14:18;;;;;;;3.97;3.55;;;;;;;;;;5105356;27;24398;-61
2021/08/26 06:16:43;;;;;;;5.33;4.00;;;;;;;;;;5109184;28;24413;-62
2021/08/26 06:19:08;;;;;;;5.40;4.30;;;;;;;;;;5107967;27;24402;-61
2021/08/26 06:21:33;;;;;;;3.92;3.53;;;;;;;;;;5111459;27;24453;-62
2021/08/26 06:23:58;;;;;;;5.57;4.43;;;;;;;;;;5128357;27;24450;-62
2021/08/26 06:26:24;;;;;;;4.40;3.40;;;;;;;;;;5106727;27;24496;-61
2021/08/26 06:28:49;;;;;;;4.70;4.00;;;;;;;;;;5117093;27;24444;-61
2021/08/26 06:31:14;;;;;;;5.45;3.90;;;;;;;;;;5092047;28;25026;-61
2021/08/26 06:33:39;;;;;;;6.77;4.30;;;;;;;;;;5110149;27;24409;-61
2021/08/26 06:36:05;;;;;;;4.90;3.92;;;;;;;;;;5108359;27;24397;-61
2021/08/26 06:38:30;;;;;;;6.00;4.20;;;;;;;;;;5112611;27;24424;-60
2021/08/26 06:40:55;;;;;;;6.23;4.60;;;;;;;;;;5129991;27;24948;-60
2021/08/26 06:43:20;;;;;;;5.80;4.95;;;;;;;;;;5121816;27;24405;-61
2021/08/26 06:45:45;;;;;;;6.43;5.13;;;;;;;;;;5121640;27;24946;-61
2021/08/26 06:48:10;;;;;;;6.50;5.10;;;;;;;;;;5128480;27;24439;-61
2021/08/26 06:50:36;;;;;;;6.93;4.70;;;;;;;;;;5107495;27;24526;-60
2021/08/26 06:53:01;;;;;;;7.10;5.07;;;;;;;;;;5107270;28;24410;-61
2021/08/26 06:55:26;;;;;;;6.13;4.90;;;;;;;;;;5119722;27;24958;-60
2021/08/26 06:57:51;;;;;;;6.80;4.93;;;;;;;;;;5112444;27;25047;-60
2021/08/26 07:00:16;;;;;;;8.50;5.97;;;;;;;;;;5106821;28;24505;-61
2021/08/26 07:02:41;;;;;;;6.47;5.07;;;;;;;;;;5104966;27;24416;-61
2021/08/26 07:05:07;;;;;;;6.13;5.10;;;;;;;;;;5105638;27;24417;-61
2021/08/26 07:07:32;;;;;;;9.67;6.10;;;;;;;;;;5108466;27;24420;-61
2021/08/26 07:09:57;;;;;;;4.50;4.10;;;;;;;;;;5108029;27;24948;-61
2021/08/26 07:12:22;;;;;;;8.00;6.00;;;;;;;;;;5102804;28;24497;-61
2021/08/26 07:14:48;;;;;;;6.53;4.72;;;;;;;;;;5107287;28;25009;-60
2021/08/26 07:17:13;;;;;;;8.30;5.97;;;;;;;;;;5123035;27;24412;-60
2021/08/26 07:19:38;;;;;;;6.80;5.82;;;;;;;;;;5127935;27;24388;-60
2021/08/26 07:22:03;;;;;;;7.67;5.77;;;;;;;;;;5128705;27;24549;-60
2021/08/26 07:24:28;;;;;;;6.70;6.03;;;;;;;;;;5128443;27;24542;-61
2021/08/26 07:26:53;;;;;;;8.27;5.90;;;;;;;;;;5117018;27;24409;-61
2021/08/26 07:29:18;;;;;;;6.17;5.60;;;;;;;;;;5107695;28;24455;-61
2021/08/26 07:31:45;;;;;;;7.22;5.78;;;;;;;;;;5108094;28;24406;-61
2021/08/26 07:34:10;;;;;;;7.07;5.53;;;;;;;;;;5108169;28;24477;-62
2021/08/26 07:36:36;;;;;;;6.40;5.80;;;;;;;;;;5110992;28;24562;-62
2021/08/26 07:39:01;;;;;;;6.70;5.68;;;;;;;;;;5128653;27;24943;-62
2021/08/26 07:41:29;;;;;;;7.27;5.40;;;;;;;;;;5128326;27;24461;-62
2021/08/26 07:43:54;;;;;;;7.03;5.40;;;;;;;;;;5128633;27;24464;-61
2021/08/26 07:46:19;;;;;;;8.48;6.03;;;;;;;;;;5127797;27;24831;-62
2021/08/26 07:48:45;;;;;;;10.60;7.80;;;;;;;;;;5122902;27;24413;-62
2021/08/26 07:51:10;;;;;;;8.30;6.80;;;;;;;;;;5127758;27;24874;-62
2021/08/26 07:53:36;;;;;;;7.25;6.55;;;;;;;;;;5123381;27;24503;-61
2021/08/26 07:56:01;;;;;;;7.93;7.13;;;;;;;;;;5108161;28;24401;-62
2021/08/26 07:58:29;;;;;;;10.83;7.90;;;;;;;;;;5108740;27;24513;-62
2021/08/26 08:00:55;;;;;;;9.48;7.93;;;;;;;;;;5119655;28;24405;-62
2021/08/26 08:03:20;;;;;;;8.60;6.80;;;;;;;;;;5128592;28;24401;-62
2021/08/26 08:05:45;;;;;;;9.82;6.80;;;;;;;;;;5126219;28;24737;-62
2021/08/26 08:08:10;;;;;;;8.10;6.50;;;;;;;;;;5107976;28;24948;-62
2021/08/26 08:10:35;;;;;;;9.23;7.85;;;;;;;;;;5112519;28;24536;-63
2021/08/26 08:13:00;;;;;;;10.82;7.90;;;;;;;;;;5112390;28;24405;-62
2021/08/26 08:15:26;;;;;;;8.70;7.22;;;;;;;;;;5107767;28;24976;-63
2021/08/26 08:17:51;;;;;;;9.48;7.60;;;;;;;;;;5107753;28;24438;-62
2021/08/26 08:20:16;;;;;;;9.85;6.72;;;;;;;;;;5106762;28;24394;-63
2021/08/26 08:22:41;;;;;;;11.23;7.37;;;;;;;;;;5116545;28;25417;-64
2021/08/26 08:25:07;;;;;;;8.53;6.90;;;;;;;;;;5127033;28;24804;-62
2021/08/26 08:27:32;;;;;;;9.90;7.22;;;;;;;;;;5107526;28;24397;-63
2021/08/26 08:29:57;;;;;;;7.07;6.20;;;;;;;;;;5107323;28;24666;-62
2021/08/26 08:32:23;;;;;;;5.70;5.07;;;;;;;;;;5108874;28;24653;-62
2021/08/26 08:34:48;;;;;;;6.70;6.00;;;;;;;;;;5107314;28;24382;-62
2021/08/26 08:37:13;;;;;;;9.20;6.10;;;;;;;;;;5107612;28;24401;-62
2021/08/26 08:39:39;;;;;;;7.40;5.80;;;;;;;;;;5107525;28;24393;-62
2021/08/26 08:42:04;;;;;;;7.00;5.65;;;;;;;;;;5107708;28;24423;-62
2021/08/26 08:44:29;;;;;;;5.30;4.77;;;;;;;;;;5122268;28;24490;-63
2021/08/26 08:46:55;;;;;;;5.80;5.20;;;;;;;;;;5107329;28;24938;-63
2021/08/26 08:49:21;;;;;;;8.80;6.27;;;;;;;;;;5108484;28;24487;-63
2021/08/26 08:51:47;;;;;;;8.30;6.60;;;;;;;;;;5110741;28;24413;-62
2021/08/26 08:54:12;;;;;;;7.05;6.00;;;;;;;;;;5112074;27;24413;-62
2021/08/26 08:56:37;;;;;;;7.43;5.90;;;;;;;;;;5111094;28;24505;-63
2021/08/26 08:59:03;;;;;;;6.70;6.10;;;;;;;;;;5111198;28;24390;-63
2021/08/26 09:01:29;;;;;;;9.10;6.50;;;;;;;;;;5092538;28;24488;-63
2021/08/26 09:03:54;;;;;;;10.33;6.93;;;;;;;;;;5112727;27;24532;-62
2021/08/26 09:06:19;;;;;;;8.73;6.80;;;;;;;;;;5122694;27;25046;-62
2021/08/26 09:08:59;;;;;;;8.80;7.10;;;;;;;;;;5110652;28;24463;-62
2021/08/26 09:11:27;;;;;;;11.07;6.70;;;;;;;;;;5110496;28;24806;-61
2021/08/26 09:13:52;;;;;;;8.85;6.88;;;;;;;;;;5110676;28;24421;-62
2021/08/26 09:16:17;;;;;;;7.70;6.00;;;;;;;;;;5111841;27;24767;-62
2021/08/26 09:18:42;;;;;;;7.45;5.78;;;;;;;;;;5110343;28;24397;-61
2021/08/26 09:21:10;;;;;;;6.90;6.20;;;;;;;;;;5110640;28;24988;-61
2021/08/26 09:23:51;;;;;;;7.15;6.00;;;;;;;;;;5110723;28;24417;-62
2021/08/26 09:26:18;;;;;;;7.70;6.30;;;;;;;;;;5111353;27;24511;-61
2021/08/26 09:28:43;;;;;;;8.27;6.10;;;;;;;;;;5110292;28;24836;-60
2021/08/26 09:31:14;;;;;;;6.60;6.00;;;;;;;;;;5110051;28;24448;-61
2021/08/26 09:33:56;;;;;;;7.47;6.28;;;;;;;;;;5110491;28;24453;-62
2021/08/26 09:36:22;;;;;;;8.18;6.57;;;;;;;;;;5110747;27;24412;-61
2021/08/26 09:38:51;;;;;;;7.13;6.13;;;;;;;;;;5110652;28;24404;-61
2021/08/26 09:41:33;;;;;;;8.70;6.57;;;;;;;;;;5110217;28;24405;-62
2021/08/26 09:44:04;;;;;;;8.00;5.90;;;;;;;;;;5110361;28;24512;-62
2021/08/26 09:46:30;;;;;;;7.43;6.03;;;;;;;;;;5118177;27;24972;-61
2021/08/26 09:49:03;;;;;;;6.05;4.93;;;;;;;;;;5109693;28;24501;-61
2021/08/26 09:51:29;;;;;;;6.80;5.10;;;;;;;;;;5110197;28;24416;-62
2021/08/26 09:53:54;;;;;;;8.03;5.53;;;;;;;;;;5108934;28;24748;-61
2021/08/26 09:56:19;;;;;;;7.83;5.60;;;;;;;;;;5102606;27;24499;-61
2021/08/26 09:58:51;;;;;;;7.32;5.40;;;;;;;;;;5130507;27;24381;-62
2021/08/26 10:01:20;;;;;;;6.80;6.10;;;;;;;;;;5130151;27;24422;-61
2021/08/26 10:03:45;;;;;;;5.80;5.10;;;;;;;;;;5130513;27;24750;-62
2021/08/26 10:06:11;;;;;;;5.70;4.50;;;;;;;;;;5128809;27;25039;-62
2021/08/26 10:08:38;;;;;;;5.93;4.57;;;;;;;;;;5117563;27;24421;-62
2021/08/26 10:11:04;;;;;;;7.53;5.22;;;;;;;;;;5109274;28;24432;-62
2021/08/26 10:13:30;;;;;;;7.63;4.90;;;;;;;;;;5109833;28;24389;-61
2021/08/26 10:15:55;;;;;;;6.53;4.80;;;;;;;;;;5109443;28;24416;-61
2021/08/26 10:18:21;;;;;;;6.10;5.00;;;;;;;;;;5110484;27;24547;-62
2021/08/26 10:20:46;;;;;;;5.63;5.00;;;;;;;;;;5108718;28;24488;-61
2021/08/26 10:23:11;;;;;;;6.47;5.45;;;;;;;;;;5109151;28;24393;-62
2021/08/26 10:25:38;;;;;;;5.90;5.20;;;;;;;;;;5109531;28;24494;-62
2021/08/26 10:28:03;;;;;;;7.00;4.53;;;;;;;;;;5112538;27;24421;-61
2021/08/26 10:30:29;;;;;;;5.70;5.10;;;;;;;;;;5126752;27;24396;-62
2021/08/26 10:33:05;;;;;;;6.82;4.10;;;;;;;;;;5108899;28;25331;-60
2021/08/26 10:35:30;;;;;;;5.88;4.40;;;;;;;;;;5109196;28;24401;-61
2021/08/26 10:37:55;;;;;;;6.73;4.70;;;;;;;;;;5109666;27;24801;-61
2021/08/26 10:40:27;;;;;;;6.15;4.28;;;;;;;;;;5109169;28;24945;-62
2021/08/26 10:42:53;;;;;;;5.53;4.60;;;;;;;;;;5108963;28;24390;-62
2021/08/26 10:45:21;;;;;;;5.65;4.95;;;;;;;;;;5109003;28;24450;-61
2021/08/26 10:47:49;;;;;;;5.93;4.47;;;;;;;;;;5108852;28;24717;-61
2021/08/26 10:50:20;;;;;;;6.33;5.20;;;;;;;;;;5109050;27;24421;-61
2021/08/26 10:52:58;;;;;;;5.33;4.80;;;;;;;;;;5111582;27;24771;-61
2021/08/26 10:55:27;;;;;;;8.20;5.45;;;;;;;;;;5108372;28;24370;-61
2021/08/26 10:57:53;;;;;;;6.50;4.82;;;;;;;;;;5108921;28;24478;-61
2021/08/26 11:00:39;;;;;;;5.60;5.00;;;;;;;;;;5109799;27;24490;-61
2021/08/26 11:03:04;;;;;;;4.82;4.32;;;;;;;;;;5109045;28;24390;-60
2021/08/26 11:05:32;;;;;;;6.18;4.65;;;;;;;;;;5108811;28;24728;-60
2021/08/26 11:07:57;;;;;;;5.00;4.00;;;;;;;;;;5108512;28;24523;-60
2021/08/26 11:10:27;;;;;;;3.90;3.60;;;;;;;;;;5109473;27;24418;-61
2021/08/26 11:12:52;;;;;;;3.67;3.25;;;;;;;;;;5107602;28;24394;-61
2021/08/26 11:15:25;;;;;;;3.90;3.50;;;;;;;;;;5107966;28;24453;-61
2021/08/26 11:17:50;;;;;;;3.50;3.20;;;;;;;;;;5108778;28;24390;-61
2021/08/26 11:20:25;;;;;;;3.33;3.00;;;;;;;;;;5109385;27;24772;-61
2021/08/26 11:23:03;;;;;;;3.42;3.10;;;;;;;;;;5099060;28;24418;-61
2021/08/26 11:25:29;;;;;;;4.13;3.40;;;;;;;;;;5108261;28;24496;-61
2021/08/26 11:28:14;;;;;;;3.42;3.00;;;;;;;;;;5107895;28;24512;-61
2021/08/26 11:30:39;;;;;;;3.97;3.20;;;;;;;;;;5108419;27;24520;-61
2021/08/26 11:33:04;;;;;;;3.50;3.20;;;;;;;;;;5108534;28;24519;-61
2021/08/26 11:35:30;;;;;;;3.33;3.07;;;;;;;;;;5119332;27;24977;-61
2021/08/26 11:37:55;;;;;;;3.40;3.10;;;;;;;;;;5128703;27;24598;-61
2021/08/26 11:40:21;;;;;;;4.47;4.07;;;;;;;;;;5128645;27;24738;-62
2021/08/26 11:42:48;;;;;;;4.20;3.80;;;;;;;;;;5126838;27;24412;-62
2021/08/26 11:45:19;;;;;;;3.90;3.60;;;;;;;;;;5128601;27;24413;-61
2021/08/26 11:47:45;;;;;;;4.47;4.00;;;;;;;;;;5121678;27;24506;-61
2021/08/26 11:50:31;;;;;;;5.03;4.50;;;;;;;;;;5107599;28;24418;-61
2021/08/26 11:52:57;;;;;;;3.53;3.25;;;;;;;;;;5115981;27;24424;-61
2021/08/26 11:55:23;;;;;;;5.55;4.78;;;;;;;;;;5128513;27;24781;-61
2021/08/26 11:57:55;;;;;;;4.60;4.20;;;;;;;;;;5128624;27;24453;-62
2021/08/26 12:00:20;;;;;;;5.95;4.38;;;;;;;;;;5128641;27;24389;-62
2021/08/26 12:02:52;;;;;;;4.40;4.00;;;;;;;;;;5126194;28;24432;-62
2021/08/26 12:05:18;;;;;;;5.90;4.00;;;;;;;;;;5127695;28;24534;-62
2021/08/26 12:07:44;;;;;;;6.90;4.70;;;;;;;;;;5128482;28;24487;-62
2021/08/26 12:10:11;;;;;;;6.03;5.05;;;;;;;;;;5128492;28;24840;-62
2021/08/26 12:12:37;;;;;;;6.70;5.00;;;;;;;;;;5126918;28;24440;-62
2021/08/26 12:15:03;;;;;;;7.85;5.35;;;;;;;;;;5115503;28;24417;-60
2021/08/26 12:17:28;;;;;;;5.10;4.57;;;;;;;;;;5107292;28;24413;-60
2021/08/26 12:19:54;;;;;;;4.90;4.40;;;;;;;;;;5102890;28;24853;-60
2021/08/26 12:22:21;;;;;;;4.20;3.80;;;;;;;;;;5104184;28;25039;-60
2021/08/26 12:24:53;;;;;;;4.70;3.90;;;;;;;;;;5108620;27;24962;-61
2021/08/26 12:27:19;;;;;;;4.65;3.60;;;;;;;;;;5112352;27;24449;-61
2021/08/26 12:29:45;;;;;;;5.43;3.70;;;;;;;;;;5108312;27;24457;-61
2021/08/26 12:32:22;;;;;;;4.15;3.53;;;;;;;;;;5118368;27;24498;-62
2021/08/26 12:34:47;;;;;;;5.05;3.75;;;;;;;;;;5114422;27;24994;-61
2021/08/26 12:37:12;;;;;;;4.87;3.47;;;;;;;;;;5129417;27;24384;-62
2021/08/26 12:39:38;;;;;;;3.10;2.55;;;;;;;;;;5129034;27;24385;-61
2021/08/26 12:42:16;;;;;;;4.10;3.00;;;;;;;;;;5114288;27;24432;-61
2021/08/26 12:44:41;;;;;;;5.13;2.70;;;;;;;;;;5110097;27;24496;-61
2021/08/26 12:47:08;;;;;;;2.80;2.60;;;;;;;;;;5099442;28;24547;-61
2021/08/26 12:49:43;;;;;;;3.88;2.58;;;;;;;;;;5102928;28;24476;-61
2021/08/26 12:52:09;;;;;;;2.10;2.00;;;;;;;;;;5105449;28;24547;-61
2021/08/26 12:54:40;;;;;;;2.27;1.73;;;;;;;;;;5103811;28;24522;-61
2021/08/26 12:57:16;;;;;;;2.33;1.75;;;;;;;;;;5104673;27;25110;-62
2021/08/26 12:59:41;;;;;;;1.70;1.60;;;;;;;;;;5107107;28;24981;-61
2021/08/26 13:02:08;;;;;;;1.50;1.40;;;;;;;;;;5107722;28;24410;-61
2021/08/26 13:04:34;;;;;;;1.92;1.50;;;;;;;;;;5107816;28;24410;-61
2021/08/26 13:06:59;;;;;;;1.63;1.40;;;;;;;;;;5119658;27;24538;-61
2021/08/26 13:09:26;;;;;;;2.07;1.30;;;;;;;;;;5104466;27;24520;-61
2021/08/26 13:11:58;;;;;;;1.20;1.10;;;;;;;;;;5106299;28;24425;-61
2021/08/26 13:14:31;;;;;;;1.48;1.10;;;;;;;;;;5107761;28;24440;-61
2021/08/26 13:16:56;;;;;;;2.00;1.40;;;;;;;;;;5108559;27;24981;-61
2021/08/26 13:19:23;;;;;;;1.50;1.30;;;;;;;;;;5105502;28;24989;-62
2021/08/26 13:21:48;;;;;;;1.98;1.30;;;;;;;;;;5109180;28;24540;-62
2021/08/26 13:24:13;;;;;;;1.20;1.10;;;;;;;;;;5110374;28;24476;-62
2021/08/26 13:26:39;;;;;;;1.20;1.10;;;;;;;;;;5111142;27;24958;-62
2021/08/26 13:29:04;;;;;;;1.40;1.30;;;;;;;;;;5109819;28;24672;-62
2021/08/26 13:31:29;;;;;;;1.20;1.10;;;;;;;;;;5110140;28;24440;-62
2021/08/26 13:33:54;;;;;;;1.20;1.10;;;;;;;;;;5110054;28;24376;-62
2021/08/26 13:36:19;;;;;;;1.00;0.90;;;;;;;;;;5109124;28;25330;-62
2021/08/26 13:38:44;;;;;;;1.13;1.10;;;;;;;;;;5123545;27;25030;-62
2021/08/26 13:41:10;;;;;;;1.40;1.30;;;;;;;;;;5130266;27;24870;-62
2021/08/26 13:43:36;;;;;;;2.07;1.70;;;;;;;;;;5130421;27;24983;-63
2021/08/26 13:46:01;;;;;;;2.13;1.92;;;;;;;;;;5130612;27;25071;-63
2021/08/26 13:48:26;;;;;;;2.40;2.08;;;;;;;;;;5127306;27;24417;-63
2021/08/26 13:50:51;;;;;;;2.43;1.93;;;;;;;;;;5121027;27;24468;-62
2021/08/26 13:53:16;;;;;;;3.60;2.28;;;;;;;;;;5130378;27;24381;-63
2021/08/26 13:55:42;;;;;;;2.47;2.27;;;;;;;;;;5130096;27;24386;-62
2021/08/26 13:58:07;;;;;;;1.53;1.20;;;;;;;;;;5129447;27;24758;-61
2021/08/26 14:00:32;;;;;;;3.10;1.20;;;;;;;;;;5129471;27;24940;-62
2021/08/26 14:02:59;;;;;;;0.87;0.87;;;;;;;;;;5121523;27;24414;-62
2021/08/26 14:05:24;;;;;;;1.02;0.80;;;;;;;;;;5109758;28;25034;-62
2021/08/26 14:07:51;;;;;;;1.40;0.90;;;;;;;;;;5109696;28;24390;-62
2021/08/26 14:10:18;;;;;;;1.13;1.02;;;;;;;;;;5110141;27;24398;-62
2021/08/26 14:12:43;;;;;;;1.73;1.00;;;;;;;;;;5108916;28;25324;-62
2021/08/26 14:15:08;;;;;;;1.75;1.10;;;;;;;;;;5109376;28;24390;-61
2021/08/26 14:17:33;;;;;;;1.40;1.30;;;;;;;;;;5109633;28;24744;-62
2021/08/26 14:19:59;;;;;;;1.50;1.13;;;;;;;;;;5110157;27;24402;-62
2021/08/26 14:22:24;;;;;;;1.60;1.30;;;;;;;;;;5108563;28;24424;-62
2021/08/26 14:24:49;;;;;;;1.65;1.50;;;;;;;;;;5108949;28;24393;-62
2021/08/26 14:27:15;;;;;;;2.00;1.50;;;;;;;;;;5109014;28;24888;-62
2021/08/26 14:29:40;;;;;;;2.00;1.60;;;;;;;;;;5108923;28;24388;-62
2021/08/26 14:32:06;;;;;;;1.93;1.67;;;;;;;;;;5109173;27;24422;-62
2021/08/26 14:34:31;;;;;;;1.90;1.80;;;;;;;;;;5108506;28;24394;-62
2021/08/26 14:36:56;;;;;;;3.07;1.87;;;;;;;;;;5108925;28;24396;-62
2021/08/26 14:39:21;;;;;;;2.57;2.10;;;;;;;;;;5108644;28;25129;-62
2021/08/26 14:41:46;;;;;;;3.00;2.20;;;;;;;;;;5108740;28;24385;-62
2021/08/26 14:44:11;;;;;;;2.35;2.15;;;;;;;;;;5109429;27;24426;-61